Algosea — CFN4229 — position and weather

sailwx.info

Track history (hours):
 
Tides and Currents Weather Stations Pressure Air Temp Water Temp Dewpoint Dewpoint Depression Visibility Wind Speed Wind Dir Waves Ship Positions

Algosea

Last reported at 2014-Oct-25 10:33 UTC. Time now 2014-Oct-25 22:12 UTC.
Position N 42°48' W 080°03'.

Length 144 m; draft 6.9 m.

Type: Ship (hazmat cat C). MMSI: 316006868.

Date/timePositionNaut miles runAvg speedWind from/ knotsBaromVisibWave heightAir tempDewpointWater temp
2014-Oct-25 10:33N 42°48' W 080°03'0 0.4
2014-Oct-25 09:33N 42°47' W 080°02'0 0.0
2014-Oct-23 20:33N 42°48' W 080°03'0 0.0
2014-Oct-23 19:32N 42°48' W 080°03'7 6.7
2014-Oct-23 18:33N 42°41' W 080°05'1211.3
2014-Oct-23 17:31N 42°30' W 080°02'  
2014-Oct-21 02:13N 42°26' W 080°18'811.6
2014-Oct-21 01:33N 42°29' W 080°08'9 8.7
2014-Oct-21 00:33N 42°36' W 080°02'9 8.2
2014-Oct-20 23:28N 42°44' W 080°08'0 0.0
2014-Oct-20 22:28N 42°44' W 080°08'0 0.0
2014-Oct-20 21:28N 42°44' W 080°08'0 0.0
2014-Oct-20 20:31N 42°44' W 080°08'0 0.0
2014-Oct-20 19:28N 42°44' W 080°08'0 0.0
2014-Oct-20 18:28N 42°44' W 080°08'0 0.0
2014-Oct-20 17:28N 42°44' W 080°08'0 0.0
2014-Oct-20 16:31N 42°44' W 080°08'0 0.0
2014-Oct-20 15:28N 42°44' W 080°08'0 0.0
2014-Oct-20 14:28N 42°44' W 080°08'0 0.0
2014-Oct-20 13:28N 42°44' W 080°08'0 0.0
2014-Oct-20 12:31N 42°44' W 080°08'0 0.0
2014-Oct-20 11:28N 42°44' W 080°08'0 0.0
2014-Oct-20 10:28N 42°44' W 080°08'0 0.0
2014-Oct-20 09:28N 42°44' W 080°07'0 0.0
2014-Oct-20 08:31N 42°44' W 080°07'0 0.1
2014-Oct-20 07:28N 42°44' W 080°07'0 0.0
2014-Oct-20 06:28N 42°44' W 080°07'0 0.0
2014-Oct-20 05:31N 42°44' W 080°07'0 0.0
2014-Oct-20 04:31N 42°44' W 080°07'0 0.0
2014-Oct-20 03:31N 42°44' W 080°07'0 0.0
2014-Oct-20 02:28N 42°44' W 080°07'0 0.0
2014-Oct-20 01:31N 42°44' W 080°07'0 0.0
2014-Oct-20 00:28N 42°44' W 080°07'0 0.0
2014-Oct-19 23:28N 42°44' W 080°07'0 0.0
2014-Oct-19 22:28N 42°44' W 080°07'0 0.0
2014-Oct-19 21:28N 42°44' W 080°07'0 0.0
2014-Oct-19 20:28N 42°44' W 080°07'0 0.0
2014-Oct-19 19:28N 42°44' W 080°07'0 0.0
2014-Oct-19 18:28N 42°44' W 080°07'0 0.0
2014-Oct-19 17:28N 42°44' W 080°07'0 0.0
2014-Oct-19 16:28N 42°44' W 080°07'0 0.0
2014-Oct-19 15:31N 42°44' W 080°08'0 0.0
2014-Oct-19 14:25N 42°44' W 080°08'0 0.0
2014-Oct-19 13:31N 42°44' W 080°08'0 0.0
2014-Oct-19 12:31N 42°44' W 080°08'0 0.0
2014-Oct-19 11:31N 42°44' W 080°08'0 0.0
2014-Oct-19 10:25N 42°44' W 080°08'0 0.0
2014-Oct-19 09:31N 42°44' W 080°08'0 0.0
2014-Oct-19 08:31N 42°44' W 080°08'0 0.0
2014-Oct-19 07:31N 42°44' W 080°08'0 0.0
2014-Oct-19 06:31N 42°44' W 080°08'0 0.0
2014-Oct-19 05:31N 42°44' W 080°08'0 0.0
2014-Oct-19 04:31N 42°44' W 080°08'0 0.0
2014-Oct-19 03:28N 42°44' W 080°08'0 0.0
2014-Oct-19 02:28N 42°44' W 080°08'0 0.0
2014-Oct-19 01:28N 42°44' W 080°08'0 0.0
2014-Oct-19 00:28N 42°44' W 080°08'0 0.0
2014-Oct-18 23:31N 42°44' W 080°08'0 0.0
2014-Oct-18 22:28N 42°44' W 080°08'0 0.0
2014-Oct-18 21:28N 42°44' W 080°08'0 0.0
2014-Oct-18 20:28N 42°44' W 080°08'0 0.0
2014-Oct-18 19:28N 42°44' W 080°08'0 0.0
2014-Oct-18 18:28N 42°44' W 080°07'0 0.0
2014-Oct-18 17:31N 42°44' W 080°07'0 0.0
2014-Oct-18 16:31N 42°44' W 080°07'0 0.0
2014-Oct-18 15:31N 42°44' W 080°07'0 0.0
2014-Oct-18 14:25N 42°44' W 080°07'0 0.0
2014-Oct-18 13:31N 42°44' W 080°07'0 0.0
2014-Oct-18 12:31N 42°44' W 080°07'0 0.0
2014-Oct-18 11:31N 42°44' W 080°07'0 0.0
2014-Oct-18 10:31N 42°44' W 080°07'0 0.0
2014-Oct-18 09:31N 42°44' W 080°07'0 0.0
2014-Oct-18 08:31N 42°44' W 080°07'0 0.0
2014-Oct-18 07:31N 42°44' W 080°07'0 0.0
2014-Oct-18 06:28N 42°44' W 080°07'0 0.0
2014-Oct-18 05:22N 42°44' W 080°07'0 0.0
2014-Oct-18 04:28N 42°44' W 080°07'0 0.0
2014-Oct-18 03:28N 42°44' W 080°07'0 0.0
2014-Oct-18 02:28N 42°44' W 080°07'0 0.0
2014-Oct-18 01:28N 42°44' W 080°07'0 0.0
2014-Oct-18 00:28N 42°44' W 080°07'0 0.0
2014-Oct-17 23:28N 42°44' W 080°07'0 0.0
2014-Oct-17 22:28N 42°44' W 080°07'0 0.0
2014-Oct-17 21:28N 42°44' W 080°08'0 0.0
2014-Oct-17 20:28N 42°44' W 080°08'0 0.0
2014-Oct-17 19:28N 42°44' W 080°08'0 0.0
2014-Oct-17 18:28N 42°44' W 080°08'0 0.2
2014-Oct-17 17:33N 42°44' W 080°08'5 4.7
2014-Oct-17 16:33N 42°47' W 080°03'4 3.6
2014-Oct-17 15:33N 42°44' W 080°06'6 5.6
2014-Oct-17 14:33N 42°43' W 079°59'7 6.8
2014-Oct-17 13:33N 42°44' W 079°50'156 5.2
2014-Oct-16 07:33N 43°56' W 076°39'1312.6
2014-Oct-16 06:33N 44°04' W 076°26'1010.2
2014-Oct-16 05:33N 44°12' W 076°16'91 7.6
2014-Oct-15 17:33N 45°04' W 074°31'10 9.9
2014-Oct-15 16:33N 45°10' W 074°20'1010.0
2014-Oct-15 15:33N 45°13' W 074°07'9 8.6
2014-Oct-15 14:33N 45°18' W 073°56'1 1.5
2014-Oct-15 13:33N 45°19' W 073°55'4 4.0
2014-Oct-15 12:34N 45°21' W 073°51'8 8.4
2014-Oct-15 11:33N 45°25' W 073°39'4 4.1
2014-Oct-15 10:33N 45°24' W 073°34'  
Track history (hours):
 
Tides and Currents Weather Stations Pressure Air Temp Water Temp Dewpoint Dewpoint Depression Visibility Wind Speed Wind Dir Waves Ship Positions

Algosea

Last reported at 2014-Oct-25 10:33 UTC. Time now 2014-Oct-25 22:12 UTC.
Position N 42°48' W 080°03'.

Length 144 m; draft 6.9 m.

Type: Ship (hazmat cat C). MMSI: 316006868.

Date/timePositionNaut miles runAvg speedWind from/ knotsBaromVisibWave heightAir tempDewpointWater temp
2014-Oct-25 10:33N 42°48' W 080°03'0 0.4
2014-Oct-25 09:33N 42°47' W 080°02'0 0.0
2014-Oct-23 20:33N 42°48' W 080°03'0 0.0
2014-Oct-23 19:32N 42°48' W 080°03'7 6.7
2014-Oct-23 18:33N 42°41' W 080°05'1211.3
2014-Oct-23 17:31N 42°30' W 080°02'  
2014-Oct-21 02:13N 42°26' W 080°18'811.6
2014-Oct-21 01:33N 42°29' W 080°08'9 8.7
2014-Oct-21 00:33N 42°36' W 080°02'9 8.2
2014-Oct-20 23:28N 42°44' W 080°08'0 0.0
2014-Oct-20 22:28N 42°44' W 080°08'0 0.0
2014-Oct-20 21:28N 42°44' W 080°08'0 0.0
2014-Oct-20 20:31N 42°44' W 080°08'0 0.0
2014-Oct-20 19:28N 42°44' W 080°08'0 0.0
2014-Oct-20 18:28N 42°44' W 080°08'0 0.0
2014-Oct-20 17:28N 42°44' W 080°08'0 0.0
2014-Oct-20 16:31N 42°44' W 080°08'0 0.0
2014-Oct-20 15:28N 42°44' W 080°08'0 0.0
2014-Oct-20 14:28N 42°44' W 080°08'0 0.0
2014-Oct-20 13:28N 42°44' W 080°08'0 0.0
2014-Oct-20 12:31N 42°44' W 080°08'0 0.0
2014-Oct-20 11:28N 42°44' W 080°08'0 0.0
2014-Oct-20 10:28N 42°44' W 080°08'0 0.0
2014-Oct-20 09:28N 42°44' W 080°07'0 0.0
2014-Oct-20 08:31N 42°44' W 080°07'0 0.1
2014-Oct-20 07:28N 42°44' W 080°07'0 0.0
2014-Oct-20 06:28N 42°44' W 080°07'0 0.0
2014-Oct-20 05:31N 42°44' W 080°07'0 0.0
2014-Oct-20 04:31N 42°44' W 080°07'0 0.0
2014-Oct-20 03:31N 42°44' W 080°07'0 0.0
2014-Oct-20 02:28N 42°44' W 080°07'0 0.0
2014-Oct-20 01:31N 42°44' W 080°07'0 0.0
2014-Oct-20 00:28N 42°44' W 080°07'0 0.0
2014-Oct-19 23:28N 42°44' W 080°07'0 0.0
2014-Oct-19 22:28N 42°44' W 080°07'0 0.0
2014-Oct-19 21:28N 42°44' W 080°07'0 0.0
2014-Oct-19 20:28N 42°44' W 080°07'0 0.0
2014-Oct-19 19:28N 42°44' W 080°07'0 0.0
2014-Oct-19 18:28N 42°44' W 080°07'0 0.0
2014-Oct-19 17:28N 42°44' W 080°07'0 0.0
2014-Oct-19 16:28N 42°44' W 080°07'0 0.0
2014-Oct-19 15:31N 42°44' W 080°08'0 0.0
2014-Oct-19 14:25N 42°44' W 080°08'0 0.0
2014-Oct-19 13:31N 42°44' W 080°08'0 0.0
2014-Oct-19 12:31N 42°44' W 080°08'0 0.0
2014-Oct-19 11:31N 42°44' W 080°08'0 0.0
2014-Oct-19 10:25N 42°44' W 080°08'0 0.0
2014-Oct-19 09:31N 42°44' W 080°08'0 0.0
2014-Oct-19 08:31N 42°44' W 080°08'0 0.0
2014-Oct-19 07:31N 42°44' W 080°08'0 0.0
2014-Oct-19 06:31N 42°44' W 080°08'0 0.0
2014-Oct-19 05:31N 42°44' W 080°08'0 0.0
2014-Oct-19 04:31N 42°44' W 080°08'0 0.0
2014-Oct-19 03:28N 42°44' W 080°08'0 0.0
2014-Oct-19 02:28N 42°44' W 080°08'0 0.0
2014-Oct-19 01:28N 42°44' W 080°08'0 0.0
2014-Oct-19 00:28N 42°44' W 080°08'0 0.0
2014-Oct-18 23:31N 42°44' W 080°08'0 0.0
2014-Oct-18 22:28N 42°44' W 080°08'0 0.0
2014-Oct-18 21:28N 42°44' W 080°08'0 0.0
2014-Oct-18 20:28N 42°44' W 080°08'0 0.0
2014-Oct-18 19:28N 42°44' W 080°08'0 0.0
2014-Oct-18 18:28N 42°44' W 080°07'0 0.0
2014-Oct-18 17:31N 42°44' W 080°07'0 0.0
2014-Oct-18 16:31N 42°44' W 080°07'0 0.0
2014-Oct-18 15:31N 42°44' W 080°07'0 0.0
2014-Oct-18 14:25N 42°44' W 080°07'0 0.0
2014-Oct-18 13:31N 42°44' W 080°07'0 0.0
2014-Oct-18 12:31N 42°44' W 080°07'0 0.0
2014-Oct-18 11:31N 42°44' W 080°07'0 0.0
2014-Oct-18 10:31N 42°44' W 080°07'0 0.0
2014-Oct-18 09:31N 42°44' W 080°07'0 0.0
2014-Oct-18 08:31N 42°44' W 080°07'0 0.0
2014-Oct-18 07:31N 42°44' W 080°07'0 0.0
2014-Oct-18 06:28N 42°44' W 080°07'0 0.0
2014-Oct-18 05:22N 42°44' W 080°07'0 0.0
2014-Oct-18 04:28N 42°44' W 080°07'0 0.0
2014-Oct-18 03:28N 42°44' W 080°07'0 0.0
2014-Oct-18 02:28N 42°44' W 080°07'0 0.0
2014-Oct-18 01:28N 42°44' W 080°07'0 0.0
2014-Oct-18 00:28N 42°44' W 080°07'0 0.0
2014-Oct-17 23:28N 42°44' W 080°07'0 0.0
2014-Oct-17 22:28N 42°44' W 080°07'0 0.0
2014-Oct-17 21:28N 42°44' W 080°08'0 0.0
2014-Oct-17 20:28N 42°44' W 080°08'0 0.0
2014-Oct-17 19:28N 42°44' W 080°08'0 0.0
2014-Oct-17 18:28N 42°44' W 080°08'0 0.2
2014-Oct-17 17:33N 42°44' W 080°08'5 4.7
2014-Oct-17 16:33N 42°47' W 080°03'4 3.6
2014-Oct-17 15:33N 42°44' W 080°06'6 5.6
2014-Oct-17 14:33N 42°43' W 079°59'7 6.8
2014-Oct-17 13:33N 42°44' W 079°50'156 5.2
2014-Oct-16 07:33N 43°56' W 076°39'1312.6
2014-Oct-16 06:33N 44°04' W 076°26'1010.2
2014-Oct-16 05:33N 44°12' W 076°16'91 7.6
2014-Oct-15 17:33N 45°04' W 074°31'10 9.9
2014-Oct-15 16:33N 45°10' W 074°20'1010.0
2014-Oct-15 15:33N 45°13' W 074°07'9 8.6
2014-Oct-15 14:33N 45°18' W 073°56'1 1.5
2014-Oct-15 13:33N 45°19' W 073°55'4 4.0
2014-Oct-15 12:34N 45°21' W 073°51'8 8.4
2014-Oct-15 11:33N 45°25' W 073°39'4 4.1
2014-Oct-15 10:33N 45°24' W 073°34'  

Dump ship's entire track history